sensor_id;sensor_type;location;lat;lon;timestamp;P1;durP1;ratioP1;P2;durP2;ratioP2
7027;SDS011;3555;53.248;10.336;2023-04-03T00:00:32;4.20;;;1.90;;
7027;SDS011;3555;53.248;10.336;2023-04-03T00:02:58;7.63;;;1.80;;
7027;SDS011;3555;53.248;10.336;2023-04-03T00:05:25;7.00;;;2.03;;
7027;SDS011;3555;53.248;10.336;2023-04-03T00:07:52;8.23;;;2.10;;
7027;SDS011;3555;53.248;10.336;2023-04-03T00:10:21;6.07;;;1.93;;
7027;SDS011;3555;53.248;10.336;2023-04-03T00:12:48;3.93;;;1.70;;
7027;SDS011;3555;53.248;10.336;2023-04-03T00:15:14;5.07;;;2.07;;
7027;SDS011;3555;53.248;10.336;2023-04-03T00:17:42;3.73;;;1.80;;
7027;SDS011;3555;53.248;10.336;2023-04-03T00:20:09;6.53;;;1.83;;
7027;SDS011;3555;53.248;10.336;2023-04-03T00:22:36;2.87;;;1.77;;
7027;SDS011;3555;53.248;10.336;2023-04-03T00:25:03;5.17;;;1.83;;
7027;SDS011;3555;53.248;10.336;2023-04-03T00:27:32;6.27;;;2.00;;
7027;SDS011;3555;53.248;10.336;2023-04-03T00:29:59;5.53;;;1.97;;
7027;SDS011;3555;53.248;10.336;2023-04-03T00:32:26;4.60;;;2.13;;
7027;SDS011;3555;53.248;10.336;2023-04-03T00:34:52;5.23;;;1.80;;
7027;SDS011;3555;53.248;10.336;2023-04-03T00:37:19;3.50;;;1.73;;
7027;SDS011;3555;53.248;10.336;2023-04-03T00:39:46;6.13;;;1.70;;
7027;SDS011;3555;53.248;10.336;2023-04-03T00:42:13;5.13;;;2.00;;
7027;SDS011;3555;53.248;10.336;2023-04-03T00:48:01;3.60;;;1.57;;
7027;SDS011;3555;53.248;10.336;2023-04-03T00:50:31;4.50;;;1.77;;
7027;SDS011;3555;53.248;10.336;2023-04-03T00:53:01;5.17;;;2.00;;
7027;SDS011;3555;53.248;10.336;2023-04-03T00:55:30;4.60;;;1.83;;
7027;SDS011;3555;53.248;10.336;2023-04-03T00:57:57;3.00;;;1.50;;
7027;SDS011;3555;53.248;10.336;2023-04-03T01:00:26;6.80;;;1.90;;
7027;SDS011;3555;53.248;10.336;2023-04-03T01:02:53;5.83;;;2.10;;
7027;SDS011;3555;53.248;10.336;2023-04-03T01:05:22;7.20;;;1.93;;
7027;SDS011;3555;53.248;10.336;2023-04-03T01:07:49;4.80;;;1.93;;
7027;SDS011;3555;53.248;10.336;2023-04-03T01:10:17;4.90;;;1.90;;
7027;SDS011;3555;53.248;10.336;2023-04-03T01:12:46;3.77;;;2.03;;
7027;SDS011;3555;53.248;10.336;2023-04-03T01:15:15;4.27;;;1.90;;
7027;SDS011;3555;53.248;10.336;2023-04-03T01:17:44;5.23;;;1.90;;
7027;SDS011;3555;53.248;10.336;2023-04-03T01:20:23;4.63;;;1.90;;
7027;SDS011;3555;53.248;10.336;2023-04-03T01:23:47;8.20;;;2.03;;
7027;SDS011;3555;53.248;10.336;2023-04-03T01:26:24;6.40;;;1.80;;
7027;SDS011;3555;53.248;10.336;2023-04-03T01:28:53;5.77;;;1.83;;
7027;SDS011;3555;53.248;10.336;2023-04-03T01:31:22;3.87;;;1.73;;
7027;SDS011;3555;53.248;10.336;2023-04-03T01:33:52;5.10;;;2.27;;
7027;SDS011;3555;53.248;10.336;2023-04-03T01:36:21;5.10;;;2.67;;
7027;SDS011;3555;53.248;10.336;2023-04-03T01:38:50;8.00;;;2.23;;
7027;SDS011;3555;53.248;10.336;2023-04-03T01:41:18;4.90;;;1.83;;
7027;SDS011;3555;53.248;10.336;2023-04-03T01:43:45;6.53;;;2.13;;
7027;SDS011;3555;53.248;10.336;2023-04-03T01:46:13;4.43;;;1.77;;
7027;SDS011;3555;53.248;10.336;2023-04-03T01:48:40;6.70;;;2.70;;
7027;SDS011;3555;53.248;10.336;2023-04-03T01:51:08;4.30;;;2.00;;
7027;SDS011;3555;53.248;10.336;2023-04-03T01:53:35;5.03;;;2.00;;
7027;SDS011;3555;53.248;10.336;2023-04-03T01:56:02;3.03;;;1.80;;
7027;SDS011;3555;53.248;10.336;2023-04-03T01:58:30;7.60;;;2.37;;
7027;SDS011;3555;53.248;10.336;2023-04-03T02:00:57;4.83;;;2.17;;
7027;SDS011;3555;53.248;10.336;2023-04-03T02:03:24;4.97;;;2.13;;
7027;SDS011;3555;53.248;10.336;2023-04-03T02:05:51;4.90;;;2.17;;
7027;SDS011;3555;53.248;10.336;2023-04-03T02:08:19;6.17;;;3.10;;
7027;SDS011;3555;53.248;10.336;2023-04-03T02:10:46;5.50;;;2.20;;
7027;SDS011;3555;53.248;10.336;2023-04-03T02:13:14;8.70;;;2.60;;
7027;SDS011;3555;53.248;10.336;2023-04-03T02:15:40;3.83;;;2.30;;
7027;SDS011;3555;53.248;10.336;2023-04-03T02:18:08;3.20;;;2.17;;
7027;SDS011;3555;53.248;10.336;2023-04-03T02:20:35;5.60;;;2.20;;
7027;SDS011;3555;53.248;10.336;2023-04-03T02:23:02;5.13;;;2.60;;
7027;SDS011;3555;53.248;10.336;2023-04-03T02:25:31;3.83;;;2.13;;
7027;SDS011;3555;53.248;10.336;2023-04-03T02:27:58;3.23;;;1.90;;
7027;SDS011;3555;53.248;10.336;2023-04-03T02:30:25;3.47;;;1.83;;
7027;SDS011;3555;53.248;10.336;2023-04-03T02:32:52;6.90;;;2.13;;
7027;SDS011;3555;53.248;10.336;2023-04-03T02:35:19;4.13;;;1.87;;
7027;SDS011;3555;53.248;10.336;2023-04-03T02:37:46;5.57;;;2.30;;
7027;SDS011;3555;53.248;10.336;2023-04-03T02:40:13;5.80;;;1.70;;
7027;SDS011;3555;53.248;10.336;2023-04-03T02:42:42;7.10;;;2.30;;
7027;SDS011;3555;53.248;10.336;2023-04-03T02:45:09;4.67;;;2.43;;
7027;SDS011;3555;53.248;10.336;2023-04-03T02:47:36;5.73;;;2.20;;
7027;SDS011;3555;53.248;10.336;2023-04-03T02:50:03;3.77;;;1.80;;
7027;SDS011;3555;53.248;10.336;2023-04-03T02:52:30;5.50;;;2.10;;
7027;SDS011;3555;53.248;10.336;2023-04-03T02:54:58;4.77;;;1.93;;
7027;SDS011;3555;53.248;10.336;2023-04-03T02:57:24;4.33;;;2.20;;
7027;SDS011;3555;53.248;10.336;2023-04-03T02:59:53;4.33;;;2.73;;
7027;SDS011;3555;53.248;10.336;2023-04-03T03:02:19;7.77;;;2.10;;
7027;SDS011;3555;53.248;10.336;2023-04-03T03:04:46;5.10;;;2.20;;
7027;SDS011;3555;53.248;10.336;2023-04-03T03:07:13;5.50;;;2.03;;
7027;SDS011;3555;53.248;10.336;2023-04-03T03:09:40;5.30;;;2.33;;
7027;SDS011;3555;53.248;10.336;2023-04-03T03:12:07;6.17;;;2.07;;
7027;SDS011;3555;53.248;10.336;2023-04-03T03:14:34;3.70;;;1.80;;
7027;SDS011;3555;53.248;10.336;2023-04-03T03:17:02;4.73;;;2.00;;
7027;SDS011;3555;53.248;10.336;2023-04-03T03:19:29;5.50;;;2.30;;
7027;SDS011;3555;53.248;10.336;2023-04-03T03:21:56;7.13;;;2.23;;
7027;SDS011;3555;53.248;10.336;2023-04-03T03:24:23;4.03;;;1.97;;
7027;SDS011;3555;53.248;10.336;2023-04-03T03:26:50;5.77;;;2.00;;
7027;SDS011;3555;53.248;10.336;2023-04-03T03:29:17;4.40;;;2.03;;
7027;SDS011;3555;53.248;10.336;2023-04-03T03:31:44;5.43;;;2.07;;
7027;SDS011;3555;53.248;10.336;2023-04-03T03:34:12;4.83;;;2.30;;
7027;SDS011;3555;53.248;10.336;2023-04-03T03:36:39;4.97;;;2.30;;
7027;SDS011;3555;53.248;10.336;2023-04-03T03:39:06;6.60;;;2.03;;
7027;SDS011;3555;53.248;10.336;2023-04-03T03:41:33;7.10;;;2.30;;
7027;SDS011;3555;53.248;10.336;2023-04-03T03:44:00;6.50;;;2.23;;
7027;SDS011;3555;53.248;10.336;2023-04-03T03:46:27;8.13;;;2.50;;
7027;SDS011;3555;53.248;10.336;2023-04-03T03:48:54;5.50;;;2.07;;
7027;SDS011;3555;53.248;10.336;2023-04-03T03:51:22;3.87;;;2.00;;
7027;SDS011;3555;53.248;10.336;2023-04-03T03:53:49;6.33;;;2.20;;
7027;SDS011;3555;53.248;10.336;2023-04-03T03:56:16;5.30;;;2.27;;
7027;SDS011;3555;53.248;10.336;2023-04-03T03:58:43;4.23;;;2.23;;
7027;SDS011;3555;53.248;10.336;2023-04-03T04:01:10;3.27;;;1.73;;
7027;SDS011;3555;53.248;10.336;2023-04-03T04:03:37;3.23;;;2.00;;
7027;SDS011;3555;53.248;10.336;2023-04-03T04:06:04;6.27;;;2.37;;
7027;SDS011;3555;53.248;10.336;2023-04-03T04:08:33;5.73;;;2.27;;
7027;SDS011;3555;53.248;10.336;2023-04-03T04:11:00;4.33;;;1.67;;
7027;SDS011;3555;53.248;10.336;2023-04-03T04:13:26;6.30;;;1.90;;
7027;SDS011;3555;53.248;10.336;2023-04-03T04:15:53;4.23;;;2.00;;
7027;SDS011;3555;53.248;10.336;2023-04-03T04:18:20;3.60;;;1.80;;
7027;SDS011;3555;53.248;10.336;2023-04-03T04:20:47;6.23;;;1.87;;
7027;SDS011;3555;53.248;10.336;2023-04-03T04:23:15;3.93;;;2.20;;
7027;SDS011;3555;53.248;10.336;2023-04-03T04:25:45;4.70;;;2.13;;
7027;SDS011;3555;53.248;10.336;2023-04-03T04:28:12;3.27;;;1.83;;
7027;SDS011;3555;53.248;10.336;2023-04-03T04:30:39;5.27;;;1.93;;
7027;SDS011;3555;53.248;10.336;2023-04-03T04:33:06;5.50;;;2.30;;
7027;SDS011;3555;53.248;10.336;2023-04-03T04:35:33;4.53;;;1.90;;
7027;SDS011;3555;53.248;10.336;2023-04-03T04:38:00;4.73;;;2.00;;
7027;SDS011;3555;53.248;10.336;2023-04-03T04:40:27;6.43;;;1.77;;
7027;SDS011;3555;53.248;10.336;2023-04-03T04:42:56;7.20;;;2.10;;
7027;SDS011;3555;53.248;10.336;2023-04-03T04:45:23;3.67;;;1.63;;
7027;SDS011;3555;53.248;10.336;2023-04-03T04:47:50;4.30;;;1.90;;
7027;SDS011;3555;53.248;10.336;2023-04-03T04:50:18;6.23;;;1.90;;
7027;SDS011;3555;53.248;10.336;2023-04-03T04:52:45;4.97;;;2.03;;
7027;SDS011;3555;53.248;10.336;2023-04-03T04:55:12;5.10;;;2.00;;
7027;SDS011;3555;53.248;10.336;2023-04-03T04:57:38;5.50;;;1.97;;
7027;SDS011;3555;53.248;10.336;2023-04-03T05:00:07;4.23;;;2.00;;
7027;SDS011;3555;53.248;10.336;2023-04-03T05:02:35;5.10;;;2.10;;
7027;SDS011;3555;53.248;10.336;2023-04-03T05:05:02;4.13;;;1.90;;
7027;SDS011;3555;53.248;10.336;2023-04-03T05:07:29;6.87;;;2.30;;
7027;SDS011;3555;53.248;10.336;2023-04-03T05:09:56;2.80;;;2.00;;
7027;SDS011;3555;53.248;10.336;2023-04-03T05:12:23;4.17;;;2.00;;
7027;SDS011;3555;53.248;10.336;2023-04-03T05:14:50;3.63;;;1.80;;
7027;SDS011;3555;53.248;10.336;2023-04-03T05:17:18;4.10;;;2.00;;
7027;SDS011;3555;53.248;10.336;2023-04-03T05:19:45;4.90;;;2.03;;
7027;SDS011;3555;53.248;10.336;2023-04-03T05:22:12;6.27;;;2.00;;
7027;SDS011;3555;53.248;10.336;2023-04-03T05:24:40;6.97;;;2.00;;
7027;SDS011;3555;53.248;10.336;2023-04-03T05:27:07;3.30;;;1.90;;
7027;SDS011;3555;53.248;10.336;2023-04-03T05:29:34;4.50;;;2.40;;
7027;SDS011;3555;53.248;10.336;2023-04-03T05:32:00;6.23;;;2.13;;
7027;SDS011;3555;53.248;10.336;2023-04-03T05:34:29;5.90;;;2.13;;
7027;SDS011;3555;53.248;10.336;2023-04-03T05:36:56;6.40;;;2.07;;
7027;SDS011;3555;53.248;10.336;2023-04-03T05:39:22;3.63;;;2.03;;
7027;SDS011;3555;53.248;10.336;2023-04-03T05:41:50;6.77;;;2.00;;
7027;SDS011;3555;53.248;10.336;2023-04-03T05:44:17;3.43;;;2.07;;
7027;SDS011;3555;53.248;10.336;2023-04-03T05:48:36;7.00;;;2.00;;
7027;SDS011;3555;53.248;10.336;2023-04-03T05:51:03;4.50;;;1.87;;
7027;SDS011;3555;53.248;10.336;2023-04-03T05:53:31;3.60;;;1.90;;
7027;SDS011;3555;53.248;10.336;2023-04-03T05:56:01;5.77;;;2.33;;
7027;SDS011;3555;53.248;10.336;2023-04-03T05:58:28;2.90;;;1.80;;
7027;SDS011;3555;53.248;10.336;2023-04-03T06:00:55;4.43;;;2.50;;
7027;SDS011;3555;53.248;10.336;2023-04-03T06:03:22;5.80;;;1.97;;
7027;SDS011;3555;53.248;10.336;2023-04-03T06:05:50;4.83;;;1.90;;
7027;SDS011;3555;53.248;10.336;2023-04-03T06:08:17;5.27;;;2.13;;
7027;SDS011;3555;53.248;10.336;2023-04-03T06:10:45;3.60;;;1.80;;
7027;SDS011;3555;53.248;10.336;2023-04-03T06:13:12;4.57;;;1.73;;
7027;SDS011;3555;53.248;10.336;2023-04-03T06:15:40;5.07;;;2.07;;
7027;SDS011;3555;53.248;10.336;2023-04-03T06:18:07;4.30;;;2.00;;
7027;SDS011;3555;53.248;10.336;2023-04-03T06:20:34;5.30;;;1.77;;
7027;SDS011;3555;53.248;10.336;2023-04-03T06:23:03;4.57;;;1.70;;
7027;SDS011;3555;53.248;10.336;2023-04-03T06:25:30;3.27;;;1.60;;
7027;SDS011;3555;53.248;10.336;2023-04-03T06:27:56;3.00;;;1.60;;
7027;SDS011;3555;53.248;10.336;2023-04-03T06:30:23;3.07;;;1.50;;
7027;SDS011;3555;53.248;10.336;2023-04-03T06:32:51;3.63;;;1.80;;
7027;SDS011;3555;53.248;10.336;2023-04-03T06:35:18;4.40;;;1.90;;
7027;SDS011;3555;53.248;10.336;2023-04-03T06:37:45;3.63;;;1.50;;
7027;SDS011;3555;53.248;10.336;2023-04-03T06:40:15;3.87;;;1.67;;
7027;SDS011;3555;53.248;10.336;2023-04-03T06:42:46;5.10;;;1.80;;
7027;SDS011;3555;53.248;10.336;2023-04-03T06:45:13;4.10;;;1.53;;
7027;SDS011;3555;53.248;10.336;2023-04-03T06:47:40;4.13;;;2.60;;
7027;SDS011;3555;53.248;10.336;2023-04-03T06:50:09;4.43;;;1.83;;
7027;SDS011;3555;53.248;10.336;2023-04-03T06:52:39;5.00;;;1.90;;
7027;SDS011;3555;53.248;10.336;2023-04-03T06:55:06;4.67;;;2.03;;
7027;SDS011;3555;53.248;10.336;2023-04-03T06:57:35;4.03;;;1.90;;
7027;SDS011;3555;53.248;10.336;2023-04-03T07:00:03;6.43;;;1.83;;
7027;SDS011;3555;53.248;10.336;2023-04-03T07:02:32;5.80;;;1.80;;
7027;SDS011;3555;53.248;10.336;2023-04-03T07:04:59;5.60;;;1.60;;
7027;SDS011;3555;53.248;10.336;2023-04-03T07:07:26;3.13;;;1.40;;
7027;SDS011;3555;53.248;10.336;2023-04-03T07:09:53;5.50;;;1.80;;
7027;SDS011;3555;53.248;10.336;2023-04-03T07:12:20;2.90;;;1.90;;
7027;SDS011;3555;53.248;10.336;2023-04-03T07:14:48;3.53;;;1.80;;
7027;SDS011;3555;53.248;10.336;2023-04-03T07:17:15;5.13;;;1.70;;
7027;SDS011;3555;53.248;10.336;2023-04-03T07:19:42;5.00;;;1.90;;
7027;SDS011;3555;53.248;10.336;2023-04-03T07:22:09;3.03;;;1.63;;
7027;SDS011;3555;53.248;10.336;2023-04-03T07:24:37;4.60;;;1.90;;
7027;SDS011;3555;53.248;10.336;2023-04-03T07:27:04;5.17;;;1.93;;
7027;SDS011;3555;53.248;10.336;2023-04-03T07:29:33;5.00;;;2.70;;
7027;SDS011;3555;53.248;10.336;2023-04-03T07:32:01;3.03;;;1.30;;
7027;SDS011;3555;53.248;10.336;2023-04-03T07:34:29;5.53;;;1.47;;
7027;SDS011;3555;53.248;10.336;2023-04-03T07:36:57;2.50;;;1.80;;
7027;SDS011;3555;53.248;10.336;2023-04-03T07:39:25;3.77;;;1.50;;
7027;SDS011;3555;53.248;10.336;2023-04-03T07:41:53;5.57;;;1.40;;
7027;SDS011;3555;53.248;10.336;2023-04-03T07:44:20;2.83;;;1.33;;
7027;SDS011;3555;53.248;10.336;2023-04-03T07:46:47;4.10;;;1.60;;
7027;SDS011;3555;53.248;10.336;2023-04-03T07:49:17;3.93;;;1.73;;
7027;SDS011;3555;53.248;10.336;2023-04-03T07:51:44;2.67;;;1.40;;
7027;SDS011;3555;53.248;10.336;2023-04-03T07:54:11;1.67;;;0.90;;
7027;SDS011;3555;53.248;10.336;2023-04-03T07:56:38;4.43;;;1.37;;
7027;SDS011;3555;53.248;10.336;2023-04-03T07:59:05;2.90;;;1.17;;
7027;SDS011;3555;53.248;10.336;2023-04-03T08:01:32;2.93;;;1.53;;
7027;SDS011;3555;53.248;10.336;2023-04-03T08:03:59;3.00;;;1.30;;
7027;SDS011;3555;53.248;10.336;2023-04-03T08:06:28;3.23;;;1.70;;
7027;SDS011;3555;53.248;10.336;2023-04-03T08:08:56;4.90;;;1.50;;
7027;SDS011;3555;53.248;10.336;2023-04-03T08:11:24;4.30;;;1.40;;
7027;SDS011;3555;53.248;10.336;2023-04-03T08:13:51;3.60;;;1.43;;
7027;SDS011;3555;53.248;10.336;2023-04-03T08:16:20;3.47;;;1.20;;
7027;SDS011;3555;53.248;10.336;2023-04-03T08:18:48;4.33;;;1.23;;
7027;SDS011;3555;53.248;10.336;2023-04-03T08:21:16;5.23;;;1.07;;
7027;SDS011;3555;53.248;10.336;2023-04-03T08:23:44;2.97;;;1.30;;
7027;SDS011;3555;53.248;10.336;2023-04-03T08:26:16;4.10;;;1.13;;
7027;SDS011;3555;53.248;10.336;2023-04-03T08:28:44;3.53;;;1.37;;
7027;SDS011;3555;53.248;10.336;2023-04-03T08:31:13;3.53;;;1.30;;
7027;SDS011;3555;53.248;10.336;2023-04-03T08:33:42;3.33;;;1.20;;
7027;SDS011;3555;53.248;10.336;2023-04-03T08:36:16;3.07;;;1.17;;
7027;SDS011;3555;53.248;10.336;2023-04-03T08:38:45;3.57;;;1.33;;
7027;SDS011;3555;53.248;10.336;2023-04-03T08:41:14;1.97;;;1.20;;
7027;SDS011;3555;53.248;10.336;2023-04-03T08:43:53;4.27;;;1.20;;
7027;SDS011;3555;53.248;10.336;2023-04-03T08:46:26;4.87;;;1.30;;
7027;SDS011;3555;53.248;10.336;2023-04-03T08:49:02;3.33;;;1.30;;
7027;SDS011;3555;53.248;10.336;2023-04-03T08:51:31;4.80;;;1.20;;
7027;SDS011;3555;53.248;10.336;2023-04-03T08:54:00;2.90;;;1.20;;
7027;SDS011;3555;53.248;10.336;2023-04-03T08:56:31;1.70;;;1.03;;
7027;SDS011;3555;53.248;10.336;2023-04-03T08:58:59;3.87;;;1.10;;
7027;SDS011;3555;53.248;10.336;2023-04-03T09:01:33;1.60;;;0.90;;
7027;SDS011;3555;53.248;10.336;2023-04-03T09:04:02;2.57;;;1.00;;
7027;SDS011;3555;53.248;10.336;2023-04-03T09:06:36;3.03;;;1.07;;
7027;SDS011;3555;53.248;10.336;2023-04-03T09:09:11;2.97;;;1.00;;
7027;SDS011;3555;53.248;10.336;2023-04-03T09:11:44;2.90;;;1.00;;
7027;SDS011;3555;53.248;10.336;2023-04-03T09:14:19;2.10;;;1.00;;
7027;SDS011;3555;53.248;10.336;2023-04-03T09:16:54;2.40;;;1.00;;
7027;SDS011;3555;53.248;10.336;2023-04-03T09:19:25;3.20;;;1.20;;
7027;SDS011;3555;53.248;10.336;2023-04-03T09:22:02;2.13;;;1.10;;
7027;SDS011;3555;53.248;10.336;2023-04-03T09:24:40;3.23;;;1.10;;
7027;SDS011;3555;53.248;10.336;2023-04-03T09:27:09;1.53;;;0.83;;
7027;SDS011;3555;53.248;10.336;2023-04-03T09:29:39;4.10;;;1.10;;
7027;SDS011;3555;53.248;10.336;2023-04-03T09:32:16;3.13;;;1.00;;
7027;SDS011;3555;53.248;10.336;2023-04-03T09:34:47;3.90;;;1.03;;
7027;SDS011;3555;53.248;10.336;2023-04-03T09:37:33;2.17;;;1.00;;
7027;SDS011;3555;53.248;10.336;2023-04-03T09:40:04;2.50;;;1.30;;
7027;SDS011;3555;53.248;10.336;2023-04-03T09:42:32;2.43;;;1.00;;
7027;SDS011;3555;53.248;10.336;2023-04-03T09:45:21;2.77;;;1.03;;
7027;SDS011;3555;53.248;10.336;2023-04-03T09:47:52;2.28;;;1.10;;
7027;SDS011;3555;53.248;10.336;2023-04-03T09:50:32;4.73;;;1.10;;
7027;SDS011;3555;53.248;10.336;2023-04-03T09:53:01;1.50;;;0.90;;
7027;SDS011;3555;53.248;10.336;2023-04-03T09:55:34;4.30;;;1.20;;
7027;SDS011;3555;53.248;10.336;2023-04-03T09:58:22;2.37;;;0.90;;
7027;SDS011;3555;53.248;10.336;2023-04-03T10:00:55;2.83;;;1.00;;
7027;SDS011;3555;53.248;10.336;2023-04-03T10:03:25;3.33;;;1.50;;
7027;SDS011;3555;53.248;10.336;2023-04-03T10:05:55;2.87;;;1.07;;
7027;SDS011;3555;53.248;10.336;2023-04-03T10:08:24;1.80;;;1.10;;
7027;SDS011;3555;53.248;10.336;2023-04-03T10:11:08;2.03;;;1.10;;
7027;SDS011;3555;53.248;10.336;2023-04-03T10:13:52;2.30;;;1.00;;
7027;SDS011;3555;53.248;10.336;2023-04-03T10:16:23;4.77;;;1.30;;
7027;SDS011;3555;53.248;10.336;2023-04-03T10:18:57;2.00;;;1.07;;
7027;SDS011;3555;53.248;10.336;2023-04-03T10:21:40;2.13;;;0.93;;
7027;SDS011;3555;53.248;10.336;2023-04-03T10:24:14;2.13;;;0.83;;
7027;SDS011;3555;53.248;10.336;2023-04-03T10:26:50;2.33;;;1.00;;
7027;SDS011;3555;53.248;10.336;2023-04-03T10:29:30;2.10;;;0.80;;
7027;SDS011;3555;53.248;10.336;2023-04-03T10:32:10;2.40;;;1.00;;
7027;SDS011;3555;53.248;10.336;2023-04-03T10:34:50;3.53;;;1.10;;
7027;SDS011;3555;53.248;10.336;2023-04-03T10:37:23;3.90;;;1.17;;
7027;SDS011;3555;53.248;10.336;2023-04-03T10:39:54;3.33;;;1.17;;
7027;SDS011;3555;53.248;10.336;2023-04-03T10:42:27;3.17;;;1.40;;
7027;SDS011;3555;53.248;10.336;2023-04-03T10:45:07;3.03;;;1.30;;
7027;SDS011;3555;53.248;10.336;2023-04-03T10:47:45;2.37;;;1.20;;
7027;SDS011;3555;53.248;10.336;2023-04-03T10:50:25;3.27;;;1.30;;
7027;SDS011;3555;53.248;10.336;2023-04-03T10:52:57;3.73;;;1.27;;
7027;SDS011;3555;53.248;10.336;2023-04-03T10:55:31;2.67;;;1.17;;
7027;SDS011;3555;53.248;10.336;2023-04-03T10:58:05;3.33;;;1.40;;
7027;SDS011;3555;53.248;10.336;2023-04-03T11:00:37;2.13;;;1.10;;
7027;SDS011;3555;53.248;10.336;2023-04-03T11:03:10;2.93;;;1.30;;
7027;SDS011;3555;53.248;10.336;2023-04-03T11:05:40;1.80;;;1.20;;
7027;SDS011;3555;53.248;10.336;2023-04-03T11:08:11;2.77;;;1.13;;
7027;SDS011;3555;53.248;10.336;2023-04-03T11:10:48;2.60;;;1.10;;
7027;SDS011;3555;53.248;10.336;2023-04-03T11:13:19;2.50;;;0.93;;
7027;SDS011;3555;53.248;10.336;2023-04-03T11:15:50;1.80;;;1.10;;
7027;SDS011;3555;53.248;10.336;2023-04-03T11:18:21;3.43;;;1.03;;
7027;SDS011;3555;53.248;10.336;2023-04-03T11:20:56;2.67;;;1.07;;
7027;SDS011;3555;53.248;10.336;2023-04-03T11:23:28;1.97;;;1.07;;
7027;SDS011;3555;53.248;10.336;2023-04-03T11:25:59;7.17;;;1.60;;
7027;SDS011;3555;53.248;10.336;2023-04-03T11:28:35;3.00;;;1.20;;
7027;SDS011;3555;53.248;10.336;2023-04-03T11:31:06;4.07;;;1.20;;
7027;SDS011;3555;53.248;10.336;2023-04-03T11:33:43;2.10;;;1.00;;
7027;SDS011;3555;53.248;10.336;2023-04-03T11:36:19;1.93;;;1.00;;
7027;SDS011;3555;53.248;10.336;2023-04-03T11:38:50;2.20;;;1.20;;
7027;SDS011;3555;53.248;10.336;2023-04-03T11:41:24;3.17;;;1.23;;
7027;SDS011;3555;53.248;10.336;2023-04-03T11:43:59;3.20;;;1.00;;
7027;SDS011;3555;53.248;10.336;2023-04-03T11:55:41;3.03;;;1.00;;
7027;SDS011;3555;53.248;10.336;2023-04-03T11:58:19;3.23;;;1.20;;
7027;SDS011;3555;53.248;10.336;2023-04-03T12:12:55;3.13;;;2.13;;
7027;SDS011;3555;53.248;10.336;2023-04-03T12:15:43;2.47;;;1.30;;
7027;SDS011;3555;53.248;10.336;2023-04-03T12:18:36;3.33;;;1.33;;
7027;SDS011;3555;53.248;10.336;2023-04-03T12:21:08;2.17;;;1.20;;
7027;SDS011;3555;53.248;10.336;2023-04-03T12:23:35;3.73;;;1.50;;
7027;SDS011;3555;53.248;10.336;2023-04-03T12:26:22;5.77;;;1.20;;
7027;SDS011;3555;53.248;10.336;2023-04-03T12:28:52;2.27;;;1.20;;
7027;SDS011;3555;53.248;10.336;2023-04-03T12:31:20;3.33;;;1.47;;
7027;SDS011;3555;53.248;10.336;2023-04-03T12:34:01;3.43;;;1.43;;
7027;SDS011;3555;53.248;10.336;2023-04-03T12:36:41;3.30;;;1.23;;
7027;SDS011;3555;53.248;10.336;2023-04-03T12:39:40;3.83;;;1.40;;
7027;SDS011;3555;53.248;10.336;2023-04-03T12:42:29;3.47;;;1.13;;
7027;SDS011;3555;53.248;10.336;2023-04-03T12:45:09;2.83;;;1.30;;
7027;SDS011;3555;53.248;10.336;2023-04-03T12:47:44;1.77;;;0.97;;
7027;SDS011;3555;53.248;10.336;2023-04-03T12:50:20;3.73;;;1.20;;
7027;SDS011;3555;53.248;10.336;2023-04-03T12:52:51;3.37;;;1.20;;
7027;SDS011;3555;53.248;10.336;2023-04-03T12:55:23;3.20;;;1.40;;
7027;SDS011;3555;53.248;10.336;2023-04-03T12:57:51;2.33;;;1.20;;
7027;SDS011;3555;53.248;10.336;2023-04-03T13:00:20;4.23;;;1.30;;
7027;SDS011;3555;53.248;10.336;2023-04-03T13:02:52;4.10;;;1.50;;
7027;SDS011;3555;53.248;10.336;2023-04-03T13:05:21;3.77;;;1.40;;
7027;SDS011;3555;53.248;10.336;2023-04-03T13:07:49;3.13;;;1.20;;
7027;SDS011;3555;53.248;10.336;2023-04-03T13:10:18;3.67;;;1.40;;
7027;SDS011;3555;53.248;10.336;2023-04-03T13:12:47;2.40;;;1.10;;
7027;SDS011;3555;53.248;10.336;2023-04-03T13:15:17;2.23;;;1.20;;
7027;SDS011;3555;53.248;10.336;2023-04-03T13:17:47;3.10;;;1.23;;
7027;SDS011;3555;53.248;10.336;2023-04-03T13:20:19;2.30;;;1.23;;
7027;SDS011;3555;53.248;10.336;2023-04-03T13:22:52;1.73;;;1.33;;
7027;SDS011;3555;53.248;10.336;2023-04-03T13:25:23;4.23;;;1.40;;
7027;SDS011;3555;53.248;10.336;2023-04-03T13:27:52;3.00;;;1.13;;
7027;SDS011;3555;53.248;10.336;2023-04-03T13:30:24;2.87;;;1.10;;
7027;SDS011;3555;53.248;10.336;2023-04-03T13:32:54;4.13;;;1.30;;
7027;SDS011;3555;53.248;10.336;2023-04-03T13:35:30;3.80;;;1.13;;
7027;SDS011;3555;53.248;10.336;2023-04-03T13:38:00;1.60;;;1.10;;
7027;SDS011;3555;53.248;10.336;2023-04-03T13:40:28;3.43;;;1.37;;
7027;SDS011;3555;53.248;10.336;2023-04-03T13:42:59;3.60;;;1.43;;
7027;SDS011;3555;53.248;10.336;2023-04-03T13:45:29;5.17;;;1.70;;
7027;SDS011;3555;53.248;10.336;2023-04-03T13:48:07;1.53;;;1.17;;
7027;SDS011;3555;53.248;10.336;2023-04-03T13:50:51;2.77;;;1.13;;
7027;SDS011;3555;53.248;10.336;2023-04-03T13:53:21;5.03;;;1.20;;
7027;SDS011;3555;53.248;10.336;2023-04-03T13:55:57;3.80;;;1.10;;
7027;SDS011;3555;53.248;10.336;2023-04-03T13:58:31;1.93;;;1.10;;
7027;SDS011;3555;53.248;10.336;2023-04-03T14:00:59;3.37;;;1.40;;
7027;SDS011;3555;53.248;10.336;2023-04-03T14:03:29;2.20;;;1.10;;
7027;SDS011;3555;53.248;10.336;2023-04-03T14:05:59;2.90;;;1.20;;
7027;SDS011;3555;53.248;10.336;2023-04-03T14:08:29;2.40;;;1.00;;
7027;SDS011;3555;53.248;10.336;2023-04-03T14:10:56;2.97;;;1.00;;
7027;SDS011;3555;53.248;10.336;2023-04-03T14:13:23;3.10;;;1.10;;
7027;SDS011;3555;53.248;10.336;2023-04-03T14:15:50;1.83;;;1.10;;
7027;SDS011;3555;53.248;10.336;2023-04-03T14:18:18;5.03;;;1.50;;
7027;SDS011;3555;53.248;10.336;2023-04-03T14:20:46;2.77;;;0.90;;
7027;SDS011;3555;53.248;10.336;2023-04-03T14:23:15;4.70;;;1.10;;
7027;SDS011;3555;53.248;10.336;2023-04-03T14:25:42;3.07;;;1.20;;
7027;SDS011;3555;53.248;10.336;2023-04-03T14:28:14;3.77;;;1.60;;
7027;SDS011;3555;53.248;10.336;2023-04-03T14:30:43;3.13;;;1.10;;
7027;SDS011;3555;53.248;10.336;2023-04-03T14:33:12;2.03;;;1.20;;
7027;SDS011;3555;53.248;10.336;2023-04-03T14:35:41;3.03;;;1.10;;
7027;SDS011;3555;53.248;10.336;2023-04-03T14:38:13;2.60;;;1.50;;
7027;SDS011;3555;53.248;10.336;2023-04-03T14:40:50;2.40;;;1.17;;
7027;SDS011;3555;53.248;10.336;2023-04-03T14:43:18;1.97;;;1.33;;
7027;SDS011;3555;53.248;10.336;2023-04-03T14:45:45;5.93;;;2.33;;
7027;SDS011;3555;53.248;10.336;2023-04-03T14:48:15;5.87;;;2.53;;
7027;SDS011;3555;53.248;10.336;2023-04-03T14:50:45;3.17;;;1.33;;
7027;SDS011;3555;53.248;10.336;2023-04-03T14:53:13;2.40;;;1.00;;
7027;SDS011;3555;53.248;10.336;2023-04-03T14:55:44;1.83;;;1.10;;
7027;SDS011;3555;53.248;10.336;2023-04-03T14:58:13;2.77;;;1.20;;
7027;SDS011;3555;53.248;10.336;2023-04-03T15:00:41;1.67;;;1.10;;
7027;SDS011;3555;53.248;10.336;2023-04-03T15:03:12;2.70;;;1.30;;
7027;SDS011;3555;53.248;10.336;2023-04-03T15:05:41;3.50;;;1.07;;
7027;SDS011;3555;53.248;10.336;2023-04-03T15:08:13;3.00;;;1.00;;
7027;SDS011;3555;53.248;10.336;2023-04-03T15:10:47;3.00;;;1.40;;
7027;SDS011;3555;53.248;10.336;2023-04-03T15:13:15;3.20;;;1.30;;
7027;SDS011;3555;53.248;10.336;2023-04-03T15:15:42;4.80;;;2.27;;
7027;SDS011;3555;53.248;10.336;2023-04-03T15:18:13;3.60;;;1.60;;
7027;SDS011;3555;53.248;10.336;2023-04-03T15:20:43;2.60;;;1.10;;
7027;SDS011;3555;53.248;10.336;2023-04-03T15:23:10;2.20;;;1.00;;
7027;SDS011;3555;53.248;10.336;2023-04-03T15:25:40;1.33;;;0.97;;
7027;SDS011;3555;53.248;10.336;2023-04-03T15:28:09;4.03;;;1.40;;
7027;SDS011;3555;53.248;10.336;2023-04-03T15:30:44;1.57;;;1.07;;
7027;SDS011;3555;53.248;10.336;2023-04-03T15:33:11;1.93;;;0.90;;
7027;SDS011;3555;53.248;10.336;2023-04-03T15:35:38;3.37;;;1.10;;
7027;SDS011;3555;53.248;10.336;2023-04-03T15:38:05;3.80;;;1.13;;
7027;SDS011;3555;53.248;10.336;2023-04-03T15:40:32;1.70;;;1.00;;
7027;SDS011;3555;53.248;10.336;2023-04-03T15:42:59;2.60;;;0.90;;